createdAt,value
2022-12-28T00:01:51.786Z,3.40
2022-12-28T00:04:19.682Z,3.10
2022-12-28T00:06:50.406Z,2.87
2022-12-28T00:09:18.298Z,2.40
2022-12-28T00:11:48.124Z,2.90
2022-12-28T00:14:15.953Z,2.97
2022-12-28T00:16:44.518Z,2.90
2022-12-28T00:19:14.729Z,3.73
2022-12-28T00:21:43.142Z,2.67
2022-12-28T00:24:18.654Z,2.70
2022-12-28T00:26:47.922Z,3.20
2022-12-28T00:29:15.992Z,2.37
2022-12-28T00:31:44.789Z,2.60
2022-12-28T00:34:13.884Z,2.60
2022-12-28T00:37:09.108Z,2.90
2022-12-28T00:39:29.581Z,2.70
2022-12-28T00:41:58.793Z,3.13
2022-12-28T00:44:26.643Z,2.70
2022-12-28T00:46:54.497Z,3.10
2022-12-28T00:49:22.363Z,3.20
2022-12-28T00:51:50.256Z,2.60
2022-12-28T00:54:18.105Z,2.60
2022-12-28T00:56:46.301Z,2.90
2022-12-28T00:59:15.553Z,3.00
2022-12-28T01:01:43.575Z,3.10
2022-12-28T01:04:11.501Z,3.30
2022-12-28T01:06:39.850Z,3.13
2022-12-28T01:09:07.954Z,3.13
2022-12-28T01:11:35.850Z,2.67
2022-12-28T01:14:03.743Z,3.03
2022-12-28T01:16:35.313Z,2.60
2022-12-28T01:19:06.391Z,3.20
2022-12-28T01:21:35.726Z,3.30
2022-12-28T01:24:05.749Z,2.60
2022-12-28T01:26:33.841Z,2.87
2022-12-28T01:29:01.975Z,3.30
2022-12-28T01:31:29.936Z,2.70
2022-12-28T01:33:59.250Z,2.83
2022-12-28T01:36:28.995Z,3.40
2022-12-28T01:38:59.113Z,2.80
2022-12-28T01:41:29.262Z,2.87
2022-12-28T01:44:38.036Z,3.23
2022-12-28T01:47:10.152Z,3.23
2022-12-28T01:49:42.608Z,2.70
2022-12-28T01:52:16.227Z,3.17
2022-12-28T01:54:46.376Z,3.00
2022-12-28T01:57:15.902Z,2.70
2022-12-28T01:59:48.793Z,3.00
2022-12-28T02:02:17.098Z,3.30
2022-12-28T02:04:47.909Z,2.90
2022-12-28T02:07:22.914Z,3.07
2022-12-28T02:10:42.506Z,3.37
2022-12-28T02:12:39.851Z,3.40
2022-12-28T02:15:08.734Z,3.50
2022-12-28T02:17:37.925Z,2.80
2022-12-28T02:20:08.491Z,2.57
2022-12-28T02:23:01.231Z,2.97
2022-12-28T02:25:58.918Z,3.23
2022-12-28T02:28:49.436Z,2.80
2022-12-28T02:31:22.255Z,2.80
2022-12-28T02:33:57.669Z,3.10
2022-12-28T02:36:32.748Z,2.80
2022-12-28T02:39:06.112Z,2.87
2022-12-28T02:41:35.574Z,3.13
2022-12-28T02:44:04.948Z,2.97
2022-12-28T02:46:57.413Z,2.80
2022-12-28T02:49:43.943Z,3.17
2022-12-28T02:52:22.240Z,2.77
2022-12-28T02:55:20.488Z,2.90
2022-12-28T02:58:05.840Z,3.40
2022-12-28T03:00:47.599Z,2.63
2022-12-28T03:03:22.432Z,2.80
2022-12-28T03:06:19.448Z,2.80
2022-12-28T03:08:56.643Z,2.70
2022-12-28T03:11:32.566Z,2.93
2022-12-28T03:14:04.813Z,3.00
2022-12-28T03:16:57.277Z,2.43
2022-12-28T03:19:46.344Z,2.73
2022-12-28T03:22:33.176Z,3.30
2022-12-28T03:25:22.519Z,2.80
2022-12-28T03:28:08.917Z,3.27
2022-12-28T03:30:58.053Z,3.10
2022-12-28T03:33:27.381Z,2.77
2022-12-28T03:36:03.500Z,3.10
2022-12-28T03:38:37.962Z,3.43
2022-12-28T03:41:09.834Z,3.17
2022-12-28T03:43:41.309Z,2.90
2022-12-28T03:46:16.037Z,3.00
2022-12-28T03:48:46.985Z,3.93
2022-12-28T03:51:17.618Z,3.23
2022-12-28T03:53:47.646Z,3.37
2022-12-28T03:56:17.876Z,2.77
2022-12-28T03:58:46.063Z,2.53
2022-12-28T04:01:14.189Z,3.50
2022-12-28T04:03:42.365Z,2.77
2022-12-28T04:06:13.051Z,3.57
2022-12-28T04:08:41.297Z,2.73
2022-12-28T04:11:09.549Z,2.80
2022-12-28T04:13:37.411Z,3.93
2022-12-28T04:16:07.548Z,2.97
2022-12-28T04:18:36.172Z,2.70
2022-12-28T04:21:04.265Z,2.80
2022-12-28T04:23:33.709Z,3.17
2022-12-28T04:26:02.817Z,2.77
2022-12-28T04:28:31.990Z,2.57
2022-12-28T04:31:01.017Z,2.90
2022-12-28T04:33:29.452Z,3.67
2022-12-28T04:36:06.640Z,3.57
2022-12-28T04:38:35.971Z,3.10
2022-12-28T04:41:05.194Z,3.67
2022-12-28T04:43:34.069Z,2.90
2022-12-28T04:46:03.462Z,2.80
2022-12-28T04:48:31.809Z,2.63
2022-12-28T04:51:00.210Z,2.90
2022-12-28T04:53:28.017Z,3.07
2022-12-28T04:55:59.250Z,2.53
2022-12-28T04:58:27.111Z,2.57
2022-12-28T05:00:55.285Z,3.13
2022-12-28T05:03:23.150Z,2.60
2022-12-28T05:05:50.980Z,3.40
2022-12-28T05:08:18.809Z,2.70
2022-12-28T05:10:46.673Z,2.63
2022-12-28T05:13:15.853Z,2.93
2022-12-28T05:15:43.699Z,2.83
2022-12-28T05:18:11.537Z,2.67
2022-12-28T05:20:39.385Z,3.10
2022-12-28T05:23:07.213Z,2.63
2022-12-28T05:25:35.060Z,2.47
2022-12-28T05:28:02.878Z,2.97
2022-12-28T05:30:32.060Z,2.63
2022-12-28T05:32:59.928Z,2.80
2022-12-28T05:35:27.988Z,2.97
2022-12-28T05:37:55.805Z,2.93
2022-12-28T05:40:23.681Z,3.10
2022-12-28T05:42:51.878Z,2.40
2022-12-28T05:45:19.863Z,3.07
2022-12-28T05:47:49.101Z,3.27
2022-12-28T05:50:17.236Z,3.07
2022-12-28T05:52:45.231Z,3.40
2022-12-28T05:55:13.128Z,2.90
2022-12-28T05:57:41.009Z,2.80
2022-12-28T06:00:09.962Z,3.00
2022-12-28T06:02:37.860Z,2.80
2022-12-28T06:05:08.639Z,2.50
2022-12-28T06:07:36.484Z,2.93
2022-12-28T06:10:04.823Z,2.80
2022-12-28T06:12:32.716Z,2.60
2022-12-28T06:15:00.747Z,2.40
2022-12-28T06:17:28.747Z,3.17
2022-12-28T06:19:56.567Z,3.07
2022-12-28T06:22:25.789Z,2.73
2022-12-28T06:24:53.611Z,3.27
2022-12-28T06:27:21.468Z,2.73
2022-12-28T06:29:49.283Z,2.63
2022-12-28T06:32:17.126Z,2.50
2022-12-28T06:34:44.944Z,2.50
2022-12-28T06:37:12.784Z,2.63
2022-12-28T06:39:41.950Z,2.93
2022-12-28T06:42:09.786Z,2.97
2022-12-28T06:44:44.182Z,2.60
2022-12-28T06:47:13.039Z,3.00
2022-12-28T06:49:40.860Z,3.07
2022-12-28T06:52:08.751Z,3.00
2022-12-28T06:54:36.605Z,2.93
2022-12-28T06:57:05.925Z,2.70
2022-12-28T06:59:33.879Z,2.50
2022-12-28T07:02:01.995Z,2.90
2022-12-28T07:04:30.047Z,3.30
2022-12-28T07:06:58.104Z,2.40
2022-12-28T07:09:26.034Z,2.63
2022-12-28T07:11:53.886Z,2.93
2022-12-28T07:14:23.064Z,2.47
2022-12-28T07:16:50.979Z,2.90
2022-12-28T07:19:18.816Z,2.47
2022-12-28T07:21:46.682Z,2.83
2022-12-28T07:24:14.541Z,2.73
2022-12-28T07:26:42.448Z,2.63
2022-12-28T07:29:11.445Z,2.70
2022-12-28T07:31:45.754Z,2.67
2022-12-28T07:34:14.325Z,2.90
2022-12-28T07:36:42.214Z,2.67
2022-12-28T07:39:10.408Z,2.83
2022-12-28T07:41:38.378Z,2.90
2022-12-28T07:44:06.744Z,2.67
2022-12-28T07:46:36.533Z,3.00
2022-12-28T07:49:06.406Z,2.97
2022-12-28T07:51:36.014Z,2.30
2022-12-28T07:54:04.933Z,3.10
2022-12-28T07:59:05.495Z,2.40
2022-12-28T08:01:35.658Z,2.50
2022-12-28T08:04:06.889Z,2.70
2022-12-28T08:06:36.541Z,3.20
2022-12-28T08:09:05.717Z,3.03
2022-12-28T08:11:34.765Z,2.50
2022-12-28T08:14:03.418Z,2.83
2022-12-28T08:16:33.337Z,3.17
2022-12-28T08:19:01.367Z,3.40
2022-12-28T08:21:33.807Z,2.63
2022-12-28T08:24:02.037Z,2.80
2022-12-28T08:26:31.537Z,2.80
2022-12-28T08:29:04.668Z,2.40
2022-12-28T08:31:35.114Z,2.40
2022-12-28T08:34:04.831Z,3.00
2022-12-28T08:36:34.151Z,2.60
2022-12-28T08:39:02.598Z,3.10
2022-12-28T08:41:31.058Z,2.17
2022-12-28T08:43:59.147Z,2.77
2022-12-28T08:46:29.373Z,3.10
2022-12-28T08:48:58.431Z,2.60
2022-12-28T08:51:29.125Z,2.80
2022-12-28T08:53:58.488Z,2.67
2022-12-28T08:56:28.573Z,2.67
2022-12-28T08:58:57.808Z,2.83
2022-12-28T09:01:27.323Z,2.50
2022-12-28T09:03:57.190Z,2.40
2022-12-28T09:06:26.989Z,2.50
2022-12-28T09:09:05.487Z,3.00
2022-12-28T09:11:36.844Z,2.67
2022-12-28T09:14:05.403Z,2.77
2022-12-28T09:16:33.446Z,2.73
2022-12-28T09:19:03.864Z,2.90
2022-12-28T09:21:33.840Z,2.80
2022-12-28T09:24:02.337Z,2.60
2022-12-28T09:26:32.096Z,2.97
2022-12-28T09:29:03.023Z,2.43
2022-12-28T09:31:33.051Z,3.30
2022-12-28T09:36:49.320Z,2.43
2022-12-28T09:39:19.061Z,2.70
2022-12-28T09:41:51.070Z,2.37
2022-12-28T09:44:33.074Z,2.43
2022-12-28T09:47:06.988Z,2.70
2022-12-28T09:49:41.107Z,2.67
2022-12-28T09:52:25.694Z,2.40
2022-12-28T09:54:53.740Z,2.50
2022-12-28T09:57:23.291Z,2.90
2022-12-28T09:59:54.127Z,2.50
2022-12-28T10:02:28.536Z,2.50
2022-12-28T10:04:56.669Z,2.77
2022-12-28T10:07:24.706Z,2.13
2022-12-28T10:09:53.053Z,2.90
2022-12-28T10:12:24.528Z,2.80
2022-12-28T10:14:54.912Z,2.50
2022-12-28T10:17:30.313Z,2.60
2022-12-28T10:20:00.070Z,2.80
2022-12-28T10:22:44.849Z,2.47
2022-12-28T10:25:18.239Z,2.40
2022-12-28T10:27:47.101Z,2.93
2022-12-28T10:30:23.863Z,2.50
2022-12-28T10:32:59.690Z,2.60
2022-12-28T10:35:33.362Z,2.40
2022-12-28T10:38:04.731Z,2.63
2022-12-28T10:40:35.899Z,2.30
2022-12-28T10:43:10.132Z,2.00
2022-12-28T10:45:46.370Z,2.57
2022-12-28T10:48:19.476Z,2.27
2022-12-28T10:50:53.047Z,2.20
2022-12-28T10:53:26.722Z,2.27
2022-12-28T10:56:18.937Z,2.50
2022-12-28T10:58:48.134Z,2.03
2022-12-28T11:01:24.812Z,2.63
2022-12-28T11:04:06.408Z,2.50
2022-12-28T11:06:36.370Z,2.57
2022-12-28T11:09:14.743Z,2.90
2022-12-28T11:11:43.438Z,2.20
2022-12-28T11:14:24.799Z,2.20
2022-12-28T11:16:55.579Z,2.03
2022-12-28T11:19:24.721Z,2.10
2022-12-28T11:21:53.311Z,2.07
2022-12-28T11:24:26.910Z,2.20
2022-12-28T11:26:54.948Z,2.03
2022-12-28T11:29:22.900Z,2.27
2022-12-28T11:31:57.877Z,2.00
2022-12-28T11:34:28.505Z,1.80
2022-12-28T11:36:56.765Z,1.80
2022-12-28T11:39:44.509Z,2.50
2022-12-28T11:42:38.895Z,2.00
2022-12-28T11:45:02.537Z,2.00
2022-12-28T11:47:34.002Z,1.77
2022-12-28T11:50:42.432Z,2.10
2022-12-28T11:53:24.046Z,1.97
2022-12-28T11:56:12.997Z,2.20
2022-12-28T11:59:19.791Z,2.30
2022-12-28T12:01:58.826Z,1.50
2022-12-28T12:04:46.050Z,1.83
2022-12-28T12:07:20.039Z,2.13
2022-12-28T12:09:49.837Z,1.93
2022-12-28T12:12:47.477Z,2.30
2022-12-28T12:15:19.035Z,1.83
2022-12-28T12:17:50.243Z,2.17
2022-12-28T12:20:48.177Z,1.83
2022-12-28T12:23:25.741Z,1.97
2022-12-28T12:25:55.109Z,2.10
2022-12-28T12:28:34.581Z,1.80
2022-12-28T12:31:05.463Z,2.00
2022-12-28T12:33:36.673Z,1.70
2022-12-28T12:36:21.024Z,1.80
2022-12-28T12:39:10.155Z,1.90
2022-12-28T12:41:44.885Z,1.70
2022-12-28T12:44:22.779Z,1.73
2022-12-28T12:47:21.365Z,1.70
2022-12-28T12:50:30.839Z,2.13
2022-12-28T12:53:07.231Z,1.67
2022-12-28T12:55:51.208Z,2.33
2022-12-28T12:58:24.847Z,1.80
2022-12-28T13:01:11.026Z,1.70
2022-12-28T13:03:42.748Z,1.80
2022-12-28T13:06:15.019Z,1.77
2022-12-28T13:08:49.838Z,1.83
2022-12-28T13:11:19.239Z,1.73
2022-12-28T13:13:49.931Z,1.57
2022-12-28T13:16:19.940Z,1.30
2022-12-28T13:18:55.485Z,2.00
2022-12-28T13:21:24.350Z,1.70
2022-12-28T13:23:54.089Z,1.70
2022-12-28T13:26:27.133Z,2.03
2022-12-28T13:28:59.590Z,1.80
2022-12-28T13:31:34.291Z,1.67
2022-12-28T13:34:04.070Z,1.67
2022-12-28T13:36:32.018Z,1.43
2022-12-28T13:39:13.308Z,1.60
2022-12-28T13:41:49.257Z,1.80
2022-12-28T13:44:45.091Z,1.57
2022-12-28T13:47:18.818Z,1.40
2022-12-28T13:49:52.317Z,1.77
2022-12-28T13:52:26.365Z,1.67
2022-12-28T13:54:59.458Z,1.50
2022-12-28T13:57:46.931Z,1.37
2022-12-28T14:00:18.157Z,1.43
2022-12-28T14:02:47.259Z,1.33
2022-12-28T14:05:20.139Z,1.60
2022-12-28T14:07:49.431Z,1.60
2022-12-28T14:10:19.943Z,1.60
2022-12-28T14:12:49.484Z,1.60
2022-12-28T14:15:18.011Z,1.53
2022-12-28T14:17:47.465Z,1.47
2022-12-28T14:20:15.757Z,1.43
2022-12-28T14:22:43.628Z,1.57
2022-12-28T14:25:14.213Z,1.33
2022-12-28T14:27:45.635Z,1.50
2022-12-28T14:30:24.735Z,1.50
2022-12-28T14:32:53.757Z,1.37
2022-12-28T14:35:23.966Z,1.50
2022-12-28T14:37:55.173Z,1.33
2022-12-28T14:40:29.160Z,1.30
2022-12-28T14:42:59.985Z,1.27
2022-12-28T14:46:05.160Z,1.50
2022-12-28T14:48:36.118Z,1.50
2022-12-28T14:51:06.422Z,1.30
2022-12-28T14:53:34.584Z,1.30
2022-12-28T14:56:07.097Z,1.57
2022-12-28T14:58:50.830Z,1.50
2022-12-28T15:01:20.878Z,1.40
2022-12-28T15:03:51.300Z,1.30
2022-12-28T15:06:19.971Z,1.60
2022-12-28T15:08:49.968Z,1.40
2022-12-28T15:11:19.277Z,1.10
2022-12-28T15:13:49.231Z,1.50
2022-12-28T15:16:18.194Z,1.43
2022-12-28T15:18:46.315Z,1.33
2022-12-28T15:21:15.618Z,1.60
2022-12-28T15:23:45.149Z,1.20
2022-12-28T15:26:14.519Z,1.20
2022-12-28T15:28:42.740Z,1.03
2022-12-28T15:31:13.946Z,1.00
2022-12-28T15:33:42.170Z,1.27
2022-12-28T15:36:17.372Z,1.67
2022-12-28T15:38:46.032Z,1.40
2022-12-28T15:41:31.775Z,1.20
2022-12-28T15:43:59.669Z,1.60
2022-12-28T15:46:28.959Z,1.27
2022-12-28T15:48:57.083Z,1.30
2022-12-28T15:51:25.039Z,1.40
2022-12-28T15:53:52.867Z,1.20
2022-12-28T15:56:22.443Z,1.37
2022-12-28T15:58:50.635Z,1.10
2022-12-28T16:01:18.576Z,1.23
2022-12-28T16:03:50.243Z,1.40
2022-12-28T16:06:18.263Z,1.40
2022-12-28T16:08:46.284Z,1.40
2022-12-28T16:11:16.838Z,1.17
2022-12-28T16:13:44.981Z,1.30
2022-12-28T16:16:14.628Z,1.50
2022-12-28T16:18:42.598Z,1.37
2022-12-28T16:21:12.693Z,1.10
2022-12-28T16:23:42.469Z,1.40
2022-12-28T16:26:12.050Z,1.40
2022-12-28T16:28:40.619Z,1.10
2022-12-28T16:31:08.727Z,1.30
2022-12-28T16:33:37.623Z,1.13
2022-12-28T16:36:16.112Z,1.10
2022-12-28T16:38:44.037Z,1.40
2022-12-28T16:41:12.436Z,1.30
2022-12-28T16:43:40.352Z,1.27
2022-12-28T16:46:09.827Z,1.30
2022-12-28T16:48:38.602Z,1.10
2022-12-28T16:51:07.273Z,1.40
2022-12-28T16:53:37.963Z,1.50
2022-12-28T16:56:07.134Z,1.17
2022-12-28T16:58:35.541Z,1.27
2022-12-28T17:01:07.888Z,1.10
2022-12-28T17:03:36.812Z,1.30
2022-12-28T17:06:05.421Z,1.10
2022-12-28T17:08:36.935Z,1.10
2022-12-28T17:11:09.124Z,1.37
2022-12-28T17:13:37.178Z,1.07
2022-12-28T17:16:06.048Z,1.00
2022-12-28T17:18:34.108Z,1.40
2022-12-28T17:21:06.680Z,1.17
2022-12-28T17:23:36.214Z,1.10
2022-12-28T17:26:04.123Z,1.17
2022-12-28T17:28:32.093Z,1.00
2022-12-28T17:31:08.497Z,1.40
2022-12-28T17:33:39.636Z,1.43
2022-12-28T17:36:09.055Z,1.37
2022-12-28T17:38:38.320Z,1.63
2022-12-28T17:41:10.763Z,1.70
2022-12-28T17:43:38.734Z,1.20
2022-12-28T17:46:07.135Z,1.60
2022-12-28T17:48:35.060Z,1.40
2022-12-28T17:51:10.892Z,1.30
2022-12-28T17:53:41.192Z,1.57
2022-12-28T17:56:11.224Z,1.40
2022-12-28T17:58:39.977Z,1.43
2022-12-28T18:01:08.253Z,1.20
2022-12-28T18:03:36.599Z,1.60
2022-12-28T18:06:04.977Z,1.30
2022-12-28T18:08:32.951Z,1.37
2022-12-28T18:11:02.938Z,1.10
2022-12-28T18:13:31.128Z,1.30
2022-12-28T18:15:58.983Z,1.20
2022-12-28T18:18:26.882Z,1.40
2022-12-28T18:20:58.848Z,1.60
2022-12-28T18:23:28.001Z,1.10
2022-12-28T18:26:03.306Z,1.40
2022-12-28T18:28:31.464Z,1.40
2022-12-28T18:31:02.152Z,1.03
2022-12-28T18:33:30.895Z,1.70
2022-12-28T18:35:58.875Z,1.30
2022-12-28T18:38:26.774Z,1.13
2022-12-28T18:40:57.071Z,1.40
2022-12-28T18:43:26.952Z,1.40
2022-12-28T18:45:54.924Z,1.33
2022-12-28T18:48:23.293Z,1.30
2022-12-28T18:50:56.067Z,1.60
2022-12-28T18:53:24.702Z,1.20
2022-12-28T18:55:58.389Z,1.70
2022-12-28T18:58:28.863Z,1.33
2022-12-28T19:01:03.143Z,1.33
2022-12-28T19:03:31.333Z,1.10
2022-12-28T19:06:02.919Z,1.20
2022-12-28T19:08:32.066Z,1.20
2022-12-28T19:11:00.136Z,1.37
2022-12-28T19:13:29.498Z,1.57
2022-12-28T19:15:57.438Z,1.60
2022-12-28T19:18:25.367Z,1.30
2022-12-28T19:20:57.823Z,1.80
2022-12-28T19:23:26.304Z,1.50
2022-12-28T19:25:59.335Z,1.53
2022-12-28T19:28:28.714Z,1.47
2022-12-28T19:31:01.193Z,1.50
2022-12-28T19:33:32.906Z,1.50
2022-12-28T19:36:01.048Z,1.80
2022-12-28T19:38:29.217Z,1.77
2022-12-28T19:40:57.565Z,1.57
2022-12-28T19:43:25.409Z,1.60
2022-12-28T19:46:01.620Z,1.57
2022-12-28T19:48:29.615Z,1.60
2022-12-28T19:50:57.862Z,1.90
2022-12-28T19:53:25.811Z,1.90
2022-12-28T19:55:58.382Z,1.87
2022-12-28T19:58:26.559Z,1.80
2022-12-28T20:00:55.735Z,1.47
2022-12-28T20:03:23.715Z,1.70
2022-12-28T20:05:51.934Z,1.77
2022-12-28T20:08:19.791Z,1.30
2022-12-28T20:10:56.053Z,1.43
2022-12-28T20:13:23.921Z,1.90
2022-12-28T20:15:51.819Z,1.80
2022-12-28T20:18:21.277Z,1.60
2022-12-28T20:21:17.933Z,1.73
2022-12-28T20:23:37.662Z,2.23
2022-12-28T20:26:05.839Z,1.60
2022-12-28T20:28:34.548Z,1.97
2022-12-28T20:31:02.983Z,1.90
2022-12-28T20:33:33.887Z,1.73
2022-12-28T20:36:04.635Z,2.03
2022-12-28T20:38:32.621Z,2.03
2022-12-28T20:41:05.543Z,1.50
2022-12-28T20:43:32.760Z,1.80
2022-12-28T20:46:00.719Z,2.00
2022-12-28T20:48:28.747Z,2.10
2022-12-28T20:50:59.144Z,1.70
2022-12-28T20:53:27.626Z,1.60
2022-12-28T20:55:55.850Z,1.70
2022-12-28T20:58:23.777Z,1.77
2022-12-28T21:00:51.650Z,2.13
2022-12-28T21:03:19.596Z,1.90
2022-12-28T21:05:47.440Z,1.67
2022-12-28T21:08:16.640Z,1.80
2022-12-28T21:10:47.801Z,1.90
2022-12-28T21:13:15.786Z,1.93
2022-12-28T21:15:43.750Z,1.90
2022-12-28T21:18:11.687Z,2.47
2022-12-28T21:20:47.342Z,1.70
2022-12-28T21:23:16.711Z,2.13
2022-12-28T21:25:44.766Z,2.30
2022-12-28T21:28:12.620Z,2.23
2022-12-28T21:30:40.587Z,1.90
2022-12-28T21:33:08.485Z,2.07
2022-12-28T21:35:36.359Z,1.90
2022-12-28T21:38:06.282Z,1.93
2022-12-28T21:40:35.505Z,2.07
2022-12-28T21:43:03.429Z,1.80
2022-12-28T21:45:31.306Z,2.00
2022-12-28T21:47:59.309Z,1.90
2022-12-28T21:50:27.169Z,1.80
2022-12-28T21:52:55.080Z,1.70
2022-12-28T21:55:40.315Z,1.80
2022-12-28T21:58:10.855Z,1.80
2022-12-28T22:00:56.488Z,1.97
2022-12-28T22:03:41.969Z,2.03
2022-12-28T22:06:10.062Z,2.67
2022-12-28T22:09:00.608Z,2.50
2022-12-28T22:11:46.203Z,1.80
2022-12-28T22:14:15.492Z,2.23
2022-12-28T22:16:43.358Z,2.23
2022-12-28T22:19:11.471Z,2.07
2022-12-28T22:21:39.333Z,2.10
2022-12-28T22:24:07.530Z,2.33
2022-12-28T22:26:35.432Z,2.20
2022-12-28T22:29:03.761Z,2.37
2022-12-28T22:31:33.140Z,2.30
2022-12-28T22:34:06.766Z,2.60
2022-12-28T22:36:35.440Z,2.20
2022-12-28T22:39:03.364Z,2.43
2022-12-28T22:41:31.428Z,1.90
2022-12-28T22:43:59.323Z,1.90
2022-12-28T22:46:27.213Z,1.97
2022-12-28T22:48:56.403Z,2.00
2022-12-28T22:51:24.270Z,2.23
2022-12-28T22:53:52.137Z,2.00
2022-12-28T22:56:20.921Z,2.00
2022-12-28T22:58:49.425Z,2.30
2022-12-28T23:01:19.386Z,2.10
2022-12-28T23:03:48.791Z,2.30
2022-12-28T23:06:19.827Z,2.30
2022-12-28T23:08:48.282Z,2.60
2022-12-28T23:11:36.187Z,2.30
2022-12-28T23:14:25.982Z,2.20
2022-12-28T23:16:54.443Z,2.10
2022-12-28T23:19:40.317Z,2.37
2022-12-28T23:22:31.373Z,2.40
2022-12-28T23:25:16.722Z,2.67
2022-12-28T23:27:46.263Z,2.10
2022-12-28T23:30:17.528Z,2.63
2022-12-28T23:32:45.444Z,2.60
2022-12-28T23:35:13.374Z,3.20
2022-12-28T23:37:42.908Z,2.83
2022-12-28T23:40:13.397Z,2.70
2022-12-28T23:42:42.462Z,2.40
2022-12-28T23:45:12.369Z,2.20
2022-12-28T23:47:40.639Z,2.47
2022-12-28T23:50:09.190Z,2.43
2022-12-28T23:52:37.034Z,2.40
2022-12-28T23:55:07.878Z,1.80
2022-12-28T23:57:35.733Z,2.60
